Savage Opportunity — WDG6313 — position and weather

sailwx.info

Track history (hours):
 
Tides and Currents Weather Stations Pressure Air Temp Water Temp Dewpoint Dewpoint Depression Visibility Wind Speed Wind Dir Waves Ship Positions

Savage Opportunity

Owner: Savage Inland Marine, Gibson, LA. More information available from US FCC via Universal Licensing System and Coast Guard Vessel Documentation Center.

Last reported at 2018-Jun-22 07:30 UTC. Time now 2018-Jun-22 07:42 UTC.
Position N 30°06' W 093°19'.

Length 25 m.

Type: Other ship. MMSI: 367555670.

Date/timePositionNaut miles runAvg speedWind from/ knotsBaromVisibWave heightAir tempDewpointWater temp
2018-Jun-22 07:30N 30°06' W 093°19'0 0.1
2018-Jun-22 07:00N 30°06' W 093°19'0 0.1
2018-Jun-22 06:30N 30°06' W 093°19'0 0.0
2018-Jun-22 06:00N 30°06' W 093°19'0 0.0
2018-Jun-22 05:30N 30°06' W 093°19'0 0.0
2018-Jun-22 05:00N 30°06' W 093°19'0 0.0
2018-Jun-22 04:30N 30°06' W 093°19'0 0.0
2018-Jun-22 03:59N 30°06' W 093°19'0 0.0
2018-Jun-22 03:30N 30°06' W 093°19'0 0.1
2018-Jun-22 03:00N 30°06' W 093°19'0 0.0
2018-Jun-22 02:30N 30°06' W 093°19'0 0.0
2018-Jun-22 02:00N 30°06' W 093°19'0 0.0
2018-Jun-22 01:30N 30°06' W 093°19'0 0.1
2018-Jun-22 01:00N 30°06' W 093°19'0 0.0
2018-Jun-22 00:31N 30°06' W 093°19'0 0.1
2018-Jun-22 00:00N 30°06' W 093°19'0 0.0
2018-Jun-21 23:30N 30°06' W 093°19'0 0.1
2018-Jun-21 22:59N 30°06' W 093°19'0 0.0
2018-Jun-21 22:30N 30°06' W 093°19'1 1.9
2018-Jun-21 22:00N 30°05' W 093°20'2 4.2
2018-Jun-21 21:30N 30°04' W 093°21'3 5.2
2018-Jun-21 21:00N 30°04' W 093°24'3 5.9
2018-Jun-21 20:30N 30°04' W 093°28'3 6.0
2018-Jun-21 20:00N 30°04' W 093°31'3 5.9
2018-Jun-21 19:30N 30°04' W 093°35'3 6.0
2018-Jun-21 19:00N 30°04' W 093°38'3 6.0
2018-Jun-21 18:30N 30°04' W 093°41'3 5.1
2018-Jun-21 18:00N 30°02' W 093°44'3 5.7
2018-Jun-21 17:30N 30°00' W 093°46'3 6.0
2018-Jun-21 17:00N 29°59' W 093°49'2 4.4
2018-Jun-21 16:30N 29°58' W 093°51'2 4.7
2018-Jun-21 16:00N 29°56' W 093°53'3 5.5
2018-Jun-21 15:30N 29°53' W 093°55'3 5.3
2018-Jun-21 15:00N 29°51' W 093°56'3 5.1
2018-Jun-21 14:30N 29°49' W 093°58'1 1.8
2018-Jun-21 14:00N 29°49' W 093°59'0 0.0
2018-Jun-21 13:30N 29°49' W 093°59'1 1.1
2018-Jun-21 13:00N 29°49' W 093°60'3 6.1
2018-Jun-21 12:30N 29°47' W 094°02'3 5.6
2018-Jun-21 12:00N 29°45' W 094°05'3 5.5
2018-Jun-21 11:30N 29°43' W 094°07'2 4.7
2018-Jun-21 11:01N 29°42' W 094°09'3 5.1
2018-Jun-21 10:30N 29°41' W 094°12'3 5.1
2018-Jun-21 10:00N 29°40' W 094°15'3 5.1
2018-Jun-21 09:30N 29°38' W 094°17'3 5.0
2018-Jun-21 09:00N 29°37' W 094°20'3 4.8
2018-Jun-21 08:30N 29°36' W 094°22'2 3.3
2018-Jun-21 08:00N 29°36' W 094°24'2 4.3
2018-Jun-21 07:30N 29°34' W 094°25'2 4.4
2018-Jun-21 07:00N 29°33' W 094°28'2 4.9
2018-Jun-21 06:30N 29°31' W 094°30'3 4.8
2018-Jun-21 05:57N 29°30' W 094°32'2 5.4
2018-Jun-21 05:29N 29°29' W 094°35'3 5.4
2018-Jun-21 04:57N 29°28' W 094°38'6 5.3
2018-Jun-21 03:53N 29°25' W 094°43'2 4.3
2018-Jun-21 03:29N 29°24' W 094°45'2 4.1
2018-Jun-21 03:00N 29°23' W 094°47'2 3.8
2018-Jun-21 02:30N 29°21' W 094°47'3 5.2
2018-Jun-21 02:00N 29°19' W 094°48'1 1.8
2018-Jun-21 01:30N 29°19' W 094°49'0 0.2
2018-Jun-21 01:00N 29°19' W 094°49'0 0.0
2018-Jun-21 00:30N 29°19' W 094°49'0 0.0
2018-Jun-21 00:00N 29°19' W 094°49'0 0.4
2018-Jun-20 23:30N 29°18' W 094°49'0 0.5
2018-Jun-20 23:00N 29°19' W 094°49'1 1.4
2018-Jun-20 22:30N 29°19' W 094°48'3 5.0
2018-Jun-20 21:54N 29°22' W 094°48'22 7.7
2018-Jun-20 19:02N 29°41' W 094°59'0 6.2
2018-Jun-20 19:00N 29°41' W 094°59'3 0.3
2018-Jun-20 09:35N 29°42' W 095°03'0 0.0
2018-Jun-20 09:28N 29°42' W 095°03'2 0.3
2018-Jun-20 04:20N 29°42' W 095°01'5 2.3
2018-Jun-20 02:15N 29°40' W 094°56'0 0.0
2018-Jun-20 01:58N 29°40' W 094°56'0 0.0
2018-Jun-20 01:27N 29°40' W 094°56'0 0.0
2018-Jun-20 00:56N 29°40' W 094°56'3 0.2
2018-Jun-19 12:39N 29°41' W 094°59'1 3.8
2018-Jun-19 12:30N 29°41' W 094°59'  
2018-Jun-17 01:38N 29°42' W 095°01'2 8.7
2018-Jun-17 01:27N 29°42' W 094°59'4 8.7
2018-Jun-17 01:00N 29°38' W 094°58'16 9.1
2018-Jun-16 23:14N 29°24' W 094°49'2 9.2
2018-Jun-16 23:00N 29°22' W 094°48'3 6.4
2018-Jun-16 22:30N 29°19' W 094°48'1 2.5
2018-Jun-16 21:58N 29°19' W 094°49'0 0.1
2018-Jun-16 21:26N 29°19' W 094°49'1 2.8
2018-Jun-16 21:00N 29°19' W 094°48'3 5.2
2018-Jun-16 20:30N 29°21' W 094°47'18 4.0
2018-Jun-16 16:03N 29°31' W 094°30'1 5.3
2018-Jun-16 15:47N 29°32' W 094°29'1 4.8
2018-Jun-16 15:29N 29°33' W 094°28'2 4.5
2018-Jun-16 15:00N 29°34' W 094°26'2 3.9
2018-Jun-16 14:27N 29°36' W 094°24'2 2.5
2018-Jun-16 13:38N 29°36' W 094°22'1 5.4
2018-Jun-16 13:29N 29°37' W 094°21'3 5.1
2018-Jun-16 13:00N 29°38' W 094°19'3 5.3
2018-Jun-16 12:30N 29°39' W 094°16'3 5.4
2018-Jun-16 12:00N 29°40' W 094°13'3 5.6
2018-Jun-16 11:30N 29°41' W 094°10'2 4.2
2018-Jun-16 11:00N 29°42' W 094°08'3 5.6
2018-Jun-16 10:30N 29°44' W 094°06'3 6.0
2018-Jun-16 10:01N 29°46' W 094°03'3 5.9
2018-Jun-16 09:30N 29°48' W 094°00'2 4.7
2018-Jun-16 09:00N 29°49' W 093°58'3 5.5
2018-Jun-16 08:31N 29°52' W 093°56'3 6.5
2018-Jun-16 08:01N 29°54' W 093°54'3 6.7
2018-Jun-16 07:30N 29°57' W 093°52'2 4.4
2018-Jun-16 07:00N 29°59' W 093°50'3 5.6
2018-Jun-16 06:30N 29°60' W 093°47'3 6.3
2018-Jun-16 06:00N 30°02' W 093°44'3 6.0
2018-Jun-16 05:30N 30°04' W 093°42'3 6.3
2018-Jun-16 05:00N 30°04' W 093°38'3 5.5
2018-Jun-16 04:30N 30°04' W 093°35'3 5.1
2018-Jun-16 04:00N 30°04' W 093°32'3 5.2
2018-Jun-16 03:30N 30°04' W 093°29'3 5.2
2018-Jun-16 03:00N 30°04' W 093°26'2 4.9
2018-Jun-16 02:30N 30°04' W 093°23'2 4.0
2018-Jun-16 02:00N 30°04' W 093°21'2 4.3
2018-Jun-16 01:29N 30°06' W 093°19'2 3.3
2018-Jun-16 01:00N 30°05' W 093°18'0 0.5
2018-Jun-16 00:30N 30°05' W 093°17'1 1.8
2018-Jun-16 00:00N 30°05' W 093°17'0 0.1
2018-Jun-15 23:30N 30°05' W 093°16'0 0.0
2018-Jun-15 23:00N 30°05' W 093°16'0 0.0
2018-Jun-15 22:31N 30°05' W 093°16'0 0.0
2018-Jun-15 22:00N 30°05' W 093°16'0 0.0
2018-Jun-15 21:30N 30°05' W 093°16'0 0.0
2018-Jun-15 21:00N 30°05' W 093°16'0 0.0
2018-Jun-15 20:30N 30°05' W 093°16'0 0.0
2018-Jun-15 20:00N 30°05' W 093°16'0 0.0
2018-Jun-15 19:30N 30°05' W 093°16'0 0.0
2018-Jun-15 19:00N 30°05' W 093°16'0 0.0
2018-Jun-15 18:30N 30°05' W 093°16'0 0.0
2018-Jun-15 18:00N 30°05' W 093°16'0 0.0
2018-Jun-15 17:30N 30°05' W 093°16'0 0.0
2018-Jun-15 17:00N 30°05' W 093°16'0 0.0
2018-Jun-15 16:30N 30°05' W 093°16'0 0.0
2018-Jun-15 15:59N 30°05' W 093°16'0 0.0
2018-Jun-15 15:30N 30°05' W 093°16'0 0.0
2018-Jun-15 14:59N 30°05' W 093°16'0 0.0
2018-Jun-15 14:31N 30°05' W 093°16'0 0.0
2018-Jun-15 14:00N 30°05' W 093°16'0 0.0
2018-Jun-15 13:30N 30°05' W 093°16'0 0.0
2018-Jun-15 13:00N 30°05' W 093°16'0 0.0
2018-Jun-15 12:30N 30°05' W 093°16'0 0.0
2018-Jun-15 12:00N 30°05' W 093°16'0 0.0
2018-Jun-15 11:30N 30°05' W 093°16'0 0.0
2018-Jun-15 11:00N 30°05' W 093°16'0 0.0
2018-Jun-15 10:30N 30°05' W 093°16'0 0.0
2018-Jun-15 10:00N 30°05' W 093°16'0 0.0
2018-Jun-15 09:30N 30°05' W 093°16'0 0.0
2018-Jun-15 09:01N 30°05' W 093°16'0 0.0
2018-Jun-15 08:30N 30°05' W 093°16'0 0.0
2018-Jun-15 08:00N 30°05' W 093°16'0 0.0
2018-Jun-15 07:30N 30°05' W 093°16'0 0.0
2018-Jun-15 07:00N 30°05' W 093°16'0 0.0
2018-Jun-15 06:30N 30°05' W 093°16'0 0.0
2018-Jun-15 06:00N 30°05' W 093°16'0 0.0
2018-Jun-15 05:30N 30°05' W 093°16'0 0.0
2018-Jun-15 05:00N 30°05' W 093°16'0 0.7
2018-Jun-15 04:30N 30°04' W 093°16'1 1.0
2018-Jun-15 04:00N 30°04' W 093°16'0 0.0
2018-Jun-15 03:30N 30°04' W 093°16'0 0.2
2018-Jun-15 03:00N 30°04' W 093°16'0 0.0
2018-Jun-15 02:30N 30°04' W 093°16'0 0.0
2018-Jun-15 02:00N 30°04' W 093°16'0 0.0
2018-Jun-15 01:30N 30°04' W 093°16'0 0.0
2018-Jun-15 01:00N 30°04' W 093°16'0 0.0
2018-Jun-15 00:30N 30°04' W 093°16'0 0.0
2018-Jun-15 00:00N 30°04' W 093°16'0 0.0
2018-Jun-14 23:30N 30°04' W 093°16'0 0.0
2018-Jun-14 23:00N 30°04' W 093°16'0 0.0
2018-Jun-14 22:30N 30°04' W 093°16'0 0.0
2018-Jun-14 22:00N 30°04' W 093°16'0 0.0
2018-Jun-14 21:30N 30°04' W 093°16'0 0.0
2018-Jun-14 21:00N 30°04' W 093°16'0 0.0
2018-Jun-14 20:30N 30°04' W 093°16'0 0.0
2018-Jun-14 20:00N 30°04' W 093°16'0 0.0
2018-Jun-14 19:30N 30°04' W 093°16'0 0.0
2018-Jun-14 19:00N 30°04' W 093°16'0 0.0
2018-Jun-14 18:30N 30°04' W 093°16'0 0.0
2018-Jun-14 18:00N 30°04' W 093°16'0 0.0
2018-Jun-14 17:30N 30°04' W 093°16'0 0.0
2018-Jun-14 17:00N 30°04' W 093°16'0 0.0
2018-Jun-14 16:30N 30°04' W 093°16'0 0.0
2018-Jun-14 16:00N 30°04' W 093°16'0 0.0
2018-Jun-14 15:30N 30°04' W 093°16'0 0.0
2018-Jun-14 15:00N 30°04' W 093°16'0 0.0
2018-Jun-14 14:30N 30°04' W 093°16'0 0.0
2018-Jun-14 14:00N 30°04' W 093°16'0 0.0
2018-Jun-14 13:30N 30°04' W 093°16'0 0.0
2018-Jun-14 13:00N 30°04' W 093°16'0 0.0
2018-Jun-14 12:30N 30°04' W 093°16'0 0.0
2018-Jun-14 12:00N 30°04' W 093°16'0 0.0
2018-Jun-14 11:31N 30°04' W 093°16'0 0.0
2018-Jun-14 11:00N 30°04' W 093°16'0 0.0
2018-Jun-14 10:30N 30°04' W 093°16'0 0.0
2018-Jun-14 10:00N 30°04' W 093°16'0 0.0
2018-Jun-14 09:30N 30°04' W 093°16'0 0.0
2018-Jun-14 09:00N 30°04' W 093°16'1 1.7
2018-Jun-14 08:30N 30°03' W 093°16'2 3.0
2018-Jun-14 08:00N 30°02' W 093°15'2 3.4
2018-Jun-14 07:30N 30°00' W 093°14'2 3.1
2018-Jun-14 07:00N 29°59' W 093°13'0 0.0
2018-Jun-14 06:30N 29°59' W 093°13'0 0.0
2018-Jun-14 06:00N 29°59' W 093°13'0 0.2
2018-Jun-14 05:30N 29°59' W 093°13'0 0.0
2018-Jun-14 05:00N 29°59' W 093°13'0 0.1
2018-Jun-14 04:29N 29°59' W 093°13'0 0.0
2018-Jun-14 04:00N 29°59' W 093°13'0 0.0
2018-Jun-14 03:30N 29°59' W 093°13'0 0.0
2018-Jun-14 03:00N 29°59' W 093°13'0 0.0
2018-Jun-14 02:30N 29°59' W 093°13'0 0.0
2018-Jun-14 02:00N 29°59' W 093°13'0 0.0
2018-Jun-14 01:30N 29°59' W 093°13'0 0.0
2018-Jun-14 01:00N 29°59' W 093°13'0 0.0
2018-Jun-14 00:30N 29°59' W 093°13'0 0.8
2018-Jun-14 00:00N 29°59' W 093°12'1 1.6
2018-Jun-13 23:30N 29°58' W 093°12'1 2.2
2018-Jun-13 23:00N 29°57' W 093°11'1 1.1
2018-Jun-13 22:30N 29°57' W 093°10'0 0.0
2018-Jun-13 22:00N 29°57' W 093°10'0 0.0
2018-Jun-13 21:30N 29°57' W 093°10'0 0.0
2018-Jun-13 21:00N 29°57' W 093°10'0 0.0
2018-Jun-13 20:30N 29°57' W 093°10'0 0.0
2018-Jun-13 20:00N 29°57' W 093°10'0 0.0
2018-Jun-13 19:30N 29°57' W 093°10'0 0.0
2018-Jun-13 19:00N 29°57' W 093°10'0 0.0
2018-Jun-13 18:30N 29°57' W 093°10'0 0.0
2018-Jun-13 18:00N 29°57' W 093°10'0 0.5
2018-Jun-13 17:30N 29°57' W 093°10'2 3.5
2018-Jun-13 17:00N 29°56' W 093°08'4 0.6
2018-Jun-13 10:50N 29°56' W 093°04'32 3.7
2018-Jun-13 02:03N 29°54' W 092°27'0 4.9
2018-Jun-13 01:59N 29°53' W 092°26'2 4.9
2018-Jun-13 01:30N 29°53' W 092°24'3 4.2
2018-Jun-13 00:53N 29°51' W 092°22'2 4.1
2018-Jun-13 00:30N 29°51' W 092°20'2 4.3
2018-Jun-13 00:00N 29°50' W 092°18'2 4.8
2018-Jun-12 23:30N 29°48' W 092°16'2 4.7
2018-Jun-12 23:00N 29°47' W 092°13'1 1.4
2018-Jun-12 22:30N 29°47' W 092°12'1 1.4
2018-Jun-12 22:00N 29°47' W 092°12'1 1.5
2018-Jun-12 21:30N 29°47' W 092°11'0 0.0
2018-Jun-12 21:00N 29°47' W 092°11'1 2.2
2018-Jun-12 20:30N 29°47' W 092°09'2 4.8
2018-Jun-12 20:00N 29°48' W 092°07'3 5.3
2018-Jun-12 19:30N 29°48' W 092°04'2 4.9
2018-Jun-12 19:00N 29°49' W 092°01'2 4.9
2018-Jun-12 18:30N 29°50' W 091°59'  
Track history (hours):
 
Tides and Currents Weather Stations Pressure Air Temp Water Temp Dewpoint Dewpoint Depression Visibility Wind Speed Wind Dir Waves Ship Positions

Savage Opportunity

Owner: Savage Inland Marine, Gibson, LA. More information available from US FCC via Universal Licensing System and Coast Guard Vessel Documentation Center.

Last reported at 2018-Jun-22 07:30 UTC. Time now 2018-Jun-22 07:42 UTC.
Position N 30°06' W 093°19'.

Length 25 m.

Type: Other ship. MMSI: 367555670.

Date/timePositionNaut miles runAvg speedWind from/ knotsBaromVisibWave heightAir tempDewpointWater temp
2018-Jun-22 07:30N 30°06' W 093°19'0 0.1
2018-Jun-22 07:00N 30°06' W 093°19'0 0.1
2018-Jun-22 06:30N 30°06' W 093°19'0 0.0
2018-Jun-22 06:00N 30°06' W 093°19'0 0.0
2018-Jun-22 05:30N 30°06' W 093°19'0 0.0
2018-Jun-22 05:00N 30°06' W 093°19'0 0.0
2018-Jun-22 04:30N 30°06' W 093°19'0 0.0
2018-Jun-22 03:59N 30°06' W 093°19'0 0.0
2018-Jun-22 03:30N 30°06' W 093°19'0 0.1
2018-Jun-22 03:00N 30°06' W 093°19'0 0.0
2018-Jun-22 02:30N 30°06' W 093°19'0 0.0
2018-Jun-22 02:00N 30°06' W 093°19'0 0.0
2018-Jun-22 01:30N 30°06' W 093°19'0 0.1
2018-Jun-22 01:00N 30°06' W 093°19'0 0.0
2018-Jun-22 00:31N 30°06' W 093°19'0 0.1
2018-Jun-22 00:00N 30°06' W 093°19'0 0.0
2018-Jun-21 23:30N 30°06' W 093°19'0 0.1
2018-Jun-21 22:59N 30°06' W 093°19'0 0.0
2018-Jun-21 22:30N 30°06' W 093°19'1 1.9
2018-Jun-21 22:00N 30°05' W 093°20'2 4.2
2018-Jun-21 21:30N 30°04' W 093°21'3 5.2
2018-Jun-21 21:00N 30°04' W 093°24'3 5.9
2018-Jun-21 20:30N 30°04' W 093°28'3 6.0
2018-Jun-21 20:00N 30°04' W 093°31'3 5.9
2018-Jun-21 19:30N 30°04' W 093°35'3 6.0
2018-Jun-21 19:00N 30°04' W 093°38'3 6.0
2018-Jun-21 18:30N 30°04' W 093°41'3 5.1
2018-Jun-21 18:00N 30°02' W 093°44'3 5.7
2018-Jun-21 17:30N 30°00' W 093°46'3 6.0
2018-Jun-21 17:00N 29°59' W 093°49'2 4.4
2018-Jun-21 16:30N 29°58' W 093°51'2 4.7
2018-Jun-21 16:00N 29°56' W 093°53'3 5.5
2018-Jun-21 15:30N 29°53' W 093°55'3 5.3
2018-Jun-21 15:00N 29°51' W 093°56'3 5.1
2018-Jun-21 14:30N 29°49' W 093°58'1 1.8
2018-Jun-21 14:00N 29°49' W 093°59'0 0.0
2018-Jun-21 13:30N 29°49' W 093°59'1 1.1
2018-Jun-21 13:00N 29°49' W 093°60'3 6.1
2018-Jun-21 12:30N 29°47' W 094°02'3 5.6
2018-Jun-21 12:00N 29°45' W 094°05'3 5.5
2018-Jun-21 11:30N 29°43' W 094°07'2 4.7
2018-Jun-21 11:01N 29°42' W 094°09'3 5.1
2018-Jun-21 10:30N 29°41' W 094°12'3 5.1
2018-Jun-21 10:00N 29°40' W 094°15'3 5.1
2018-Jun-21 09:30N 29°38' W 094°17'3 5.0
2018-Jun-21 09:00N 29°37' W 094°20'3 4.8
2018-Jun-21 08:30N 29°36' W 094°22'2 3.3
2018-Jun-21 08:00N 29°36' W 094°24'2 4.3
2018-Jun-21 07:30N 29°34' W 094°25'2 4.4
2018-Jun-21 07:00N 29°33' W 094°28'2 4.9
2018-Jun-21 06:30N 29°31' W 094°30'3 4.8
2018-Jun-21 05:57N 29°30' W 094°32'2 5.4
2018-Jun-21 05:29N 29°29' W 094°35'3 5.4
2018-Jun-21 04:57N 29°28' W 094°38'6 5.3
2018-Jun-21 03:53N 29°25' W 094°43'2 4.3
2018-Jun-21 03:29N 29°24' W 094°45'2 4.1
2018-Jun-21 03:00N 29°23' W 094°47'2 3.8
2018-Jun-21 02:30N 29°21' W 094°47'3 5.2
2018-Jun-21 02:00N 29°19' W 094°48'1 1.8
2018-Jun-21 01:30N 29°19' W 094°49'0 0.2
2018-Jun-21 01:00N 29°19' W 094°49'0 0.0
2018-Jun-21 00:30N 29°19' W 094°49'0 0.0
2018-Jun-21 00:00N 29°19' W 094°49'0 0.4
2018-Jun-20 23:30N 29°18' W 094°49'0 0.5
2018-Jun-20 23:00N 29°19' W 094°49'1 1.4
2018-Jun-20 22:30N 29°19' W 094°48'3 5.0
2018-Jun-20 21:54N 29°22' W 094°48'22 7.7
2018-Jun-20 19:02N 29°41' W 094°59'0 6.2
2018-Jun-20 19:00N 29°41' W 094°59'3 0.3
2018-Jun-20 09:35N 29°42' W 095°03'0 0.0
2018-Jun-20 09:28N 29°42' W 095°03'2 0.3
2018-Jun-20 04:20N 29°42' W 095°01'5 2.3
2018-Jun-20 02:15N 29°40' W 094°56'0 0.0
2018-Jun-20 01:58N 29°40' W 094°56'0 0.0
2018-Jun-20 01:27N 29°40' W 094°56'0 0.0
2018-Jun-20 00:56N 29°40' W 094°56'3 0.2
2018-Jun-19 12:39N 29°41' W 094°59'1 3.8
2018-Jun-19 12:30N 29°41' W 094°59'  
2018-Jun-17 01:38N 29°42' W 095°01'2 8.7
2018-Jun-17 01:27N 29°42' W 094°59'4 8.7
2018-Jun-17 01:00N 29°38' W 094°58'16 9.1
2018-Jun-16 23:14N 29°24' W 094°49'2 9.2
2018-Jun-16 23:00N 29°22' W 094°48'3 6.4
2018-Jun-16 22:30N 29°19' W 094°48'1 2.5
2018-Jun-16 21:58N 29°19' W 094°49'0 0.1
2018-Jun-16 21:26N 29°19' W 094°49'1 2.8
2018-Jun-16 21:00N 29°19' W 094°48'3 5.2
2018-Jun-16 20:30N 29°21' W 094°47'18 4.0
2018-Jun-16 16:03N 29°31' W 094°30'1 5.3
2018-Jun-16 15:47N 29°32' W 094°29'1 4.8
2018-Jun-16 15:29N 29°33' W 094°28'2 4.5
2018-Jun-16 15:00N 29°34' W 094°26'2 3.9
2018-Jun-16 14:27N 29°36' W 094°24'2 2.5
2018-Jun-16 13:38N 29°36' W 094°22'1 5.4
2018-Jun-16 13:29N 29°37' W 094°21'3 5.1
2018-Jun-16 13:00N 29°38' W 094°19'3 5.3
2018-Jun-16 12:30N 29°39' W 094°16'3 5.4
2018-Jun-16 12:00N 29°40' W 094°13'3 5.6
2018-Jun-16 11:30N 29°41' W 094°10'2 4.2
2018-Jun-16 11:00N 29°42' W 094°08'3 5.6
2018-Jun-16 10:30N 29°44' W 094°06'3 6.0
2018-Jun-16 10:01N 29°46' W 094°03'3 5.9
2018-Jun-16 09:30N 29°48' W 094°00'2 4.7
2018-Jun-16 09:00N 29°49' W 093°58'3 5.5
2018-Jun-16 08:31N 29°52' W 093°56'3 6.5
2018-Jun-16 08:01N 29°54' W 093°54'3 6.7
2018-Jun-16 07:30N 29°57' W 093°52'2 4.4
2018-Jun-16 07:00N 29°59' W 093°50'3 5.6
2018-Jun-16 06:30N 29°60' W 093°47'3 6.3
2018-Jun-16 06:00N 30°02' W 093°44'3 6.0
2018-Jun-16 05:30N 30°04' W 093°42'3 6.3
2018-Jun-16 05:00N 30°04' W 093°38'3 5.5
2018-Jun-16 04:30N 30°04' W 093°35'3 5.1
2018-Jun-16 04:00N 30°04' W 093°32'3 5.2
2018-Jun-16 03:30N 30°04' W 093°29'3 5.2
2018-Jun-16 03:00N 30°04' W 093°26'2 4.9
2018-Jun-16 02:30N 30°04' W 093°23'2 4.0
2018-Jun-16 02:00N 30°04' W 093°21'2 4.3
2018-Jun-16 01:29N 30°06' W 093°19'2 3.3
2018-Jun-16 01:00N 30°05' W 093°18'0 0.5
2018-Jun-16 00:30N 30°05' W 093°17'1 1.8
2018-Jun-16 00:00N 30°05' W 093°17'0 0.1
2018-Jun-15 23:30N 30°05' W 093°16'0 0.0
2018-Jun-15 23:00N 30°05' W 093°16'0 0.0
2018-Jun-15 22:31N 30°05' W 093°16'0 0.0
2018-Jun-15 22:00N 30°05' W 093°16'0 0.0
2018-Jun-15 21:30N 30°05' W 093°16'0 0.0
2018-Jun-15 21:00N 30°05' W 093°16'0 0.0
2018-Jun-15 20:30N 30°05' W 093°16'0 0.0
2018-Jun-15 20:00N 30°05' W 093°16'0 0.0
2018-Jun-15 19:30N 30°05' W 093°16'0 0.0
2018-Jun-15 19:00N 30°05' W 093°16'0 0.0
2018-Jun-15 18:30N 30°05' W 093°16'0 0.0
2018-Jun-15 18:00N 30°05' W 093°16'0 0.0
2018-Jun-15 17:30N 30°05' W 093°16'0 0.0
2018-Jun-15 17:00N 30°05' W 093°16'0 0.0
2018-Jun-15 16:30N 30°05' W 093°16'0 0.0
2018-Jun-15 15:59N 30°05' W 093°16'0 0.0
2018-Jun-15 15:30N 30°05' W 093°16'0 0.0
2018-Jun-15 14:59N 30°05' W 093°16'0 0.0
2018-Jun-15 14:31N 30°05' W 093°16'0 0.0
2018-Jun-15 14:00N 30°05' W 093°16'0 0.0
2018-Jun-15 13:30N 30°05' W 093°16'0 0.0
2018-Jun-15 13:00N 30°05' W 093°16'0 0.0
2018-Jun-15 12:30N 30°05' W 093°16'0 0.0
2018-Jun-15 12:00N 30°05' W 093°16'0 0.0
2018-Jun-15 11:30N 30°05' W 093°16'0 0.0
2018-Jun-15 11:00N 30°05' W 093°16'0 0.0
2018-Jun-15 10:30N 30°05' W 093°16'0 0.0
2018-Jun-15 10:00N 30°05' W 093°16'0 0.0
2018-Jun-15 09:30N 30°05' W 093°16'0 0.0
2018-Jun-15 09:01N 30°05' W 093°16'0 0.0
2018-Jun-15 08:30N 30°05' W 093°16'0 0.0
2018-Jun-15 08:00N 30°05' W 093°16'0 0.0
2018-Jun-15 07:30N 30°05' W 093°16'0 0.0
2018-Jun-15 07:00N 30°05' W 093°16'0 0.0
2018-Jun-15 06:30N 30°05' W 093°16'0 0.0
2018-Jun-15 06:00N 30°05' W 093°16'0 0.0
2018-Jun-15 05:30N 30°05' W 093°16'0 0.0
2018-Jun-15 05:00N 30°05' W 093°16'0 0.7
2018-Jun-15 04:30N 30°04' W 093°16'1 1.0
2018-Jun-15 04:00N 30°04' W 093°16'0 0.0
2018-Jun-15 03:30N 30°04' W 093°16'0 0.2
2018-Jun-15 03:00N 30°04' W 093°16'0 0.0
2018-Jun-15 02:30N 30°04' W 093°16'0 0.0
2018-Jun-15 02:00N 30°04' W 093°16'0 0.0
2018-Jun-15 01:30N 30°04' W 093°16'0 0.0
2018-Jun-15 01:00N 30°04' W 093°16'0 0.0
2018-Jun-15 00:30N 30°04' W 093°16'0 0.0
2018-Jun-15 00:00N 30°04' W 093°16'0 0.0
2018-Jun-14 23:30N 30°04' W 093°16'0 0.0
2018-Jun-14 23:00N 30°04' W 093°16'0 0.0
2018-Jun-14 22:30N 30°04' W 093°16'0 0.0
2018-Jun-14 22:00N 30°04' W 093°16'0 0.0
2018-Jun-14 21:30N 30°04' W 093°16'0 0.0
2018-Jun-14 21:00N 30°04' W 093°16'0 0.0
2018-Jun-14 20:30N 30°04' W 093°16'0 0.0
2018-Jun-14 20:00N 30°04' W 093°16'0 0.0
2018-Jun-14 19:30N 30°04' W 093°16'0 0.0
2018-Jun-14 19:00N 30°04' W 093°16'0 0.0
2018-Jun-14 18:30N 30°04' W 093°16'0 0.0
2018-Jun-14 18:00N 30°04' W 093°16'0 0.0
2018-Jun-14 17:30N 30°04' W 093°16'0 0.0
2018-Jun-14 17:00N 30°04' W 093°16'0 0.0
2018-Jun-14 16:30N 30°04' W 093°16'0 0.0
2018-Jun-14 16:00N 30°04' W 093°16'0 0.0
2018-Jun-14 15:30N 30°04' W 093°16'0 0.0
2018-Jun-14 15:00N 30°04' W 093°16'0 0.0
2018-Jun-14 14:30N 30°04' W 093°16'0 0.0
2018-Jun-14 14:00N 30°04' W 093°16'0 0.0
2018-Jun-14 13:30N 30°04' W 093°16'0 0.0
2018-Jun-14 13:00N 30°04' W 093°16'0 0.0
2018-Jun-14 12:30N 30°04' W 093°16'0 0.0
2018-Jun-14 12:00N 30°04' W 093°16'0 0.0
2018-Jun-14 11:31N 30°04' W 093°16'0 0.0
2018-Jun-14 11:00N 30°04' W 093°16'0 0.0
2018-Jun-14 10:30N 30°04' W 093°16'0 0.0
2018-Jun-14 10:00N 30°04' W 093°16'0 0.0
2018-Jun-14 09:30N 30°04' W 093°16'0 0.0
2018-Jun-14 09:00N 30°04' W 093°16'1 1.7
2018-Jun-14 08:30N 30°03' W 093°16'2 3.0
2018-Jun-14 08:00N 30°02' W 093°15'2 3.4
2018-Jun-14 07:30N 30°00' W 093°14'2 3.1
2018-Jun-14 07:00N 29°59' W 093°13'0 0.0
2018-Jun-14 06:30N 29°59' W 093°13'0 0.0
2018-Jun-14 06:00N 29°59' W 093°13'0 0.2
2018-Jun-14 05:30N 29°59' W 093°13'0 0.0
2018-Jun-14 05:00N 29°59' W 093°13'0 0.1
2018-Jun-14 04:29N 29°59' W 093°13'0 0.0
2018-Jun-14 04:00N 29°59' W 093°13'0 0.0
2018-Jun-14 03:30N 29°59' W 093°13'0 0.0
2018-Jun-14 03:00N 29°59' W 093°13'0 0.0
2018-Jun-14 02:30N 29°59' W 093°13'0 0.0
2018-Jun-14 02:00N 29°59' W 093°13'0 0.0
2018-Jun-14 01:30N 29°59' W 093°13'0 0.0
2018-Jun-14 01:00N 29°59' W 093°13'0 0.0
2018-Jun-14 00:30N 29°59' W 093°13'0 0.8
2018-Jun-14 00:00N 29°59' W 093°12'1 1.6
2018-Jun-13 23:30N 29°58' W 093°12'1 2.2
2018-Jun-13 23:00N 29°57' W 093°11'1 1.1
2018-Jun-13 22:30N 29°57' W 093°10'0 0.0
2018-Jun-13 22:00N 29°57' W 093°10'0 0.0
2018-Jun-13 21:30N 29°57' W 093°10'0 0.0
2018-Jun-13 21:00N 29°57' W 093°10'0 0.0
2018-Jun-13 20:30N 29°57' W 093°10'0 0.0
2018-Jun-13 20:00N 29°57' W 093°10'0 0.0
2018-Jun-13 19:30N 29°57' W 093°10'0 0.0
2018-Jun-13 19:00N 29°57' W 093°10'0 0.0
2018-Jun-13 18:30N 29°57' W 093°10'0 0.0
2018-Jun-13 18:00N 29°57' W 093°10'0 0.5
2018-Jun-13 17:30N 29°57' W 093°10'2 3.5
2018-Jun-13 17:00N 29°56' W 093°08'4 0.6
2018-Jun-13 10:50N 29°56' W 093°04'32 3.7
2018-Jun-13 02:03N 29°54' W 092°27'0 4.9
2018-Jun-13 01:59N 29°53' W 092°26'2 4.9
2018-Jun-13 01:30N 29°53' W 092°24'3 4.2
2018-Jun-13 00:53N 29°51' W 092°22'2 4.1
2018-Jun-13 00:30N 29°51' W 092°20'2 4.3
2018-Jun-13 00:00N 29°50' W 092°18'2 4.8
2018-Jun-12 23:30N 29°48' W 092°16'2 4.7
2018-Jun-12 23:00N 29°47' W 092°13'1 1.4
2018-Jun-12 22:30N 29°47' W 092°12'1 1.4
2018-Jun-12 22:00N 29°47' W 092°12'1 1.5
2018-Jun-12 21:30N 29°47' W 092°11'0 0.0
2018-Jun-12 21:00N 29°47' W 092°11'1 2.2
2018-Jun-12 20:30N 29°47' W 092°09'2 4.8
2018-Jun-12 20:00N 29°48' W 092°07'3 5.3
2018-Jun-12 19:30N 29°48' W 092°04'2 4.9
2018-Jun-12 19:00N 29°49' W 092°01'2 4.9
2018-Jun-12 18:30N 29°50' W 091°59'  

Dump ship's entire track history